createdAt,value
2022-07-28T00:00:56.262Z,14.80
2022-07-28T00:03:22.989Z,14.64
2022-07-28T00:05:49.942Z,14.69
2022-07-28T00:08:17.224Z,14.67
2022-07-28T00:10:43.872Z,14.75
2022-07-28T00:13:10.431Z,14.69
2022-07-28T00:15:37.036Z,14.61
2022-07-28T00:18:03.808Z,14.66
2022-07-28T00:20:30.871Z,14.66
2022-07-28T00:22:57.543Z,14.55
2022-07-28T00:25:24.580Z,14.58
2022-07-28T00:27:51.235Z,14.51
2022-07-28T00:30:17.804Z,14.40
2022-07-28T00:32:44.368Z,14.52
2022-07-28T00:35:10.979Z,14.51
2022-07-28T00:37:40.075Z,14.45
2022-07-28T00:40:07.940Z,14.33
2022-07-28T00:42:34.478Z,14.31
2022-07-28T00:45:01.180Z,14.34
2022-07-28T00:47:27.763Z,14.24
2022-07-28T00:50:03.642Z,14.19
2022-07-28T00:52:30.501Z,14.28
2022-07-28T00:54:58.449Z,14.27
2022-07-28T00:57:27.242Z,14.35
2022-07-28T00:59:53.864Z,14.35
2022-07-28T01:02:21.104Z,14.38
2022-07-28T01:04:47.914Z,14.34
2022-07-28T01:07:35.143Z,14.21
2022-07-28T01:10:19.946Z,14.22
2022-07-28T01:12:56.788Z,14.29
2022-07-28T01:15:29.834Z,14.27
2022-07-28T01:18:05.110Z,14.17
2022-07-28T01:20:39.613Z,14.25
2022-07-28T01:23:12.089Z,14.32
2022-07-28T01:25:57.889Z,14.36
2022-07-28T01:28:40.421Z,14.23
2022-07-28T01:31:09.259Z,14.30
2022-07-28T01:33:44.342Z,14.26
2022-07-28T01:36:16.504Z,14.24
2022-07-28T01:38:46.175Z,14.31
2022-07-28T01:41:22.302Z,14.28
2022-07-28T01:43:59.224Z,14.27
2022-07-28T01:46:27.291Z,14.20
2022-07-28T01:48:55.671Z,14.16
2022-07-28T01:51:25.132Z,14.24
2022-07-28T01:53:54.188Z,14.10
2022-07-28T01:56:25.750Z,14.16
2022-07-28T01:58:55.723Z,14.14
2022-07-28T02:01:25.342Z,14.22
2022-07-28T02:03:54.654Z,14.26
2022-07-28T02:06:23.146Z,14.30
2022-07-28T02:08:53.063Z,14.13
2022-07-28T02:11:38.205Z,14.14
2022-07-28T02:14:06.613Z,14.06
2022-07-28T02:16:33.206Z,14.09
2022-07-28T02:19:00.899Z,14.17
2022-07-28T02:21:31.278Z,14.05
2022-07-28T02:23:59.826Z,14.08
2022-07-28T02:26:32.196Z,13.98
2022-07-28T02:29:01.546Z,13.89
2022-07-28T02:31:38.084Z,13.87
2022-07-28T02:34:11.212Z,13.80
2022-07-28T02:36:41.680Z,13.82
2022-07-28T02:39:15.517Z,13.83
2022-07-28T02:41:44.107Z,13.74
2022-07-28T02:44:18.337Z,13.75
2022-07-28T02:46:49.432Z,13.73
2022-07-28T02:49:25.477Z,13.61
2022-07-28T02:51:55.178Z,13.68
2022-07-28T02:54:24.497Z,13.60
2022-07-28T02:56:54.253Z,13.62
2022-07-28T02:59:22.334Z,13.59
2022-07-28T03:01:50.553Z,13.61
2022-07-28T03:04:38.188Z,13.63
2022-07-28T03:07:08.224Z,13.56
2022-07-28T03:09:42.431Z,13.59
2022-07-28T03:12:12.645Z,13.60
2022-07-28T03:14:39.915Z,13.39
2022-07-28T03:17:06.728Z,13.35
2022-07-28T03:19:33.494Z,13.36
2022-07-28T03:22:00.168Z,13.41
2022-07-28T03:24:32.535Z,13.41
2022-07-28T03:27:28.597Z,13.49
2022-07-28T03:30:07.141Z,13.44
2022-07-28T03:32:37.376Z,13.42
2022-07-28T03:35:06.300Z,13.47
2022-07-28T03:37:58.177Z,13.33
2022-07-28T03:40:29.128Z,13.39
2022-07-28T03:42:57.783Z,13.33
2022-07-28T03:45:24.566Z,13.29
2022-07-28T03:47:55.153Z,13.27
2022-07-28T03:50:26.128Z,13.22
2022-07-28T03:52:53.844Z,13.36
2022-07-28T03:55:21.171Z,13.24
2022-07-28T03:57:47.830Z,13.22
2022-07-28T04:00:16.676Z,13.18
2022-07-28T04:02:44.198Z,13.05
2022-07-28T04:05:15.508Z,13.13
2022-07-28T04:07:42.532Z,13.12
2022-07-28T04:10:11.676Z,13.07
2022-07-28T04:12:57.781Z,13.08
2022-07-28T04:15:25.917Z,13.08
2022-07-28T04:17:53.901Z,13.05
2022-07-28T04:20:22.065Z,12.99
2022-07-28T04:22:53.379Z,12.95
2022-07-28T04:25:22.229Z,12.98
2022-07-28T04:27:48.857Z,12.96
2022-07-28T04:30:17.697Z,12.95
2022-07-28T04:32:45.979Z,12.94
2022-07-28T04:35:17.361Z,12.97
2022-07-28T04:37:45.747Z,12.85
2022-07-28T04:40:13.285Z,12.92
2022-07-28T04:42:40.235Z,12.85
2022-07-28T04:45:08.311Z,12.78
2022-07-28T04:47:35.281Z,12.90
2022-07-28T04:50:02.085Z,12.88
2022-07-28T04:52:28.628Z,12.88
2022-07-28T04:54:55.474Z,12.86
2022-07-28T04:57:22.379Z,12.79
2022-07-28T04:59:54.320Z,12.90
2022-07-28T05:02:23.575Z,13.01
2022-07-28T05:04:50.344Z,12.95
2022-07-28T05:07:16.939Z,13.03
2022-07-28T05:09:43.573Z,13.12
2022-07-28T05:12:10.982Z,13.16
2022-07-28T05:14:37.584Z,13.16
2022-07-28T05:17:04.412Z,13.17
2022-07-28T05:19:31.065Z,13.33
2022-07-28T05:21:57.624Z,13.18
2022-07-28T05:24:24.186Z,13.30
2022-07-28T05:26:50.778Z,13.38
2022-07-28T05:29:17.358Z,13.53
2022-07-28T05:31:44.029Z,13.48
2022-07-28T05:34:10.912Z,13.53
2022-07-28T05:36:39.035Z,13.75
2022-07-28T05:39:05.603Z,13.93
2022-07-28T05:41:32.165Z,14.11
2022-07-28T05:44:01.176Z,13.89
2022-07-28T05:46:28.635Z,14.07
2022-07-28T05:48:55.405Z,13.87
2022-07-28T05:51:22.072Z,13.96
2022-07-28T05:53:48.628Z,13.84
2022-07-28T05:56:15.263Z,13.92
2022-07-28T05:58:41.879Z,13.93
2022-07-28T06:01:08.616Z,13.99
2022-07-28T06:03:39.979Z,13.98
2022-07-28T06:06:15.755Z,14.13
2022-07-28T06:08:44.485Z,14.43
2022-07-28T06:11:11.890Z,14.47
2022-07-28T06:13:46.723Z,14.72
2022-07-28T06:16:13.547Z,15.06
2022-07-28T06:18:40.316Z,15.51
2022-07-28T06:21:06.960Z,15.40
2022-07-28T06:23:33.919Z,15.68
2022-07-28T06:26:00.847Z,15.32
2022-07-28T06:28:27.622Z,15.40
2022-07-28T06:30:54.254Z,15.29
2022-07-28T06:33:20.860Z,15.04
2022-07-28T06:35:51.318Z,15.23
2022-07-28T06:38:20.370Z,15.02
2022-07-28T06:40:47.638Z,15.07
2022-07-28T06:43:14.786Z,15.11
2022-07-28T06:45:41.457Z,15.19
2022-07-28T06:48:08.840Z,15.29
2022-07-28T06:50:39.250Z,15.85
2022-07-28T06:53:06.319Z,16.06
2022-07-28T06:55:35.700Z,16.82
2022-07-28T06:58:05.695Z,16.46
2022-07-28T07:00:32.526Z,16.05
2022-07-28T07:03:00.819Z,15.77
2022-07-28T07:05:30.038Z,15.59
2022-07-28T07:07:56.650Z,16.60
2022-07-28T07:10:23.600Z,16.47
2022-07-28T07:12:50.215Z,17.37
2022-07-28T07:15:16.864Z,17.42
2022-07-28T07:17:43.400Z,17.21
2022-07-28T07:20:10.616Z,17.24
2022-07-28T07:22:45.631Z,17.06
2022-07-28T07:25:14.569Z,17.70
2022-07-28T07:27:41.254Z,18.37
2022-07-28T07:30:09.154Z,18.87
2022-07-28T07:32:36.417Z,17.97
2022-07-28T07:35:03.885Z,18.14
2022-07-28T07:37:32.540Z,18.61
2022-07-28T07:40:00.344Z,19.40
2022-07-28T07:42:27.090Z,18.51
2022-07-28T07:44:53.932Z,18.78
2022-07-28T07:47:20.618Z,18.13
2022-07-28T07:49:47.214Z,18.64
2022-07-28T07:52:14.363Z,18.19
2022-07-28T07:54:41.925Z,18.18
2022-07-28T07:57:08.912Z,17.93
2022-07-28T07:59:35.558Z,18.60
2022-07-28T08:02:02.303Z,18.93
2022-07-28T08:04:29.267Z,19.05
2022-07-28T08:06:56.252Z,19.25
2022-07-28T08:09:23.491Z,19.76
2022-07-28T08:11:50.097Z,20.34
2022-07-28T08:14:17.562Z,19.42
2022-07-28T08:16:44.687Z,19.71
2022-07-28T08:19:11.739Z,19.52
2022-07-28T08:21:38.760Z,19.23
2022-07-28T08:24:05.773Z,19.61
2022-07-28T08:26:32.519Z,19.65
2022-07-28T08:28:59.121Z,20.64
2022-07-28T08:31:25.721Z,20.27
2022-07-28T08:33:53.733Z,20.67
2022-07-28T08:36:22.146Z,18.79
2022-07-28T08:38:48.714Z,19.09
2022-07-28T08:41:33.381Z,19.22
2022-07-28T08:44:03.857Z,19.49
2022-07-28T08:46:36.900Z,20.94
2022-07-28T08:49:10.275Z,20.71
2022-07-28T08:51:38.561Z,19.64
2022-07-28T08:54:07.125Z,19.65
2022-07-28T08:56:35.917Z,20.05
2022-07-28T08:59:03.172Z,18.84
2022-07-28T09:01:39.206Z,19.14
2022-07-28T09:04:08.407Z,19.85
2022-07-28T09:06:37.737Z,20.07
2022-07-28T09:09:04.348Z,18.75
2022-07-28T09:11:30.875Z,19.33
2022-07-28T09:13:57.406Z,19.05
2022-07-28T09:16:24.207Z,18.88
2022-07-28T09:18:50.912Z,18.94
2022-07-28T09:21:17.860Z,19.44
2022-07-28T09:23:48.862Z,19.61
2022-07-28T09:26:17.291Z,20.47
2022-07-28T09:28:58.060Z,20.57
2022-07-28T09:31:26.866Z,20.82
2022-07-28T09:34:02.409Z,20.41
2022-07-28T09:36:31.130Z,20.43
2022-07-28T09:38:59.079Z,20.36
2022-07-28T09:41:25.740Z,20.23
2022-07-28T09:43:55.225Z,20.62
2022-07-28T09:46:25.506Z,20.61
2022-07-28T09:48:57.759Z,20.56
2022-07-28T09:51:26.250Z,20.27
2022-07-28T09:53:53.389Z,20.64
2022-07-28T09:56:20.571Z,21.07
2022-07-28T09:58:57.347Z,21.20
2022-07-28T10:01:25.058Z,20.64
2022-07-28T10:03:57.142Z,21.00
2022-07-28T10:06:25.049Z,20.69
2022-07-28T10:08:53.217Z,21.42
2022-07-28T10:11:26.763Z,21.53
2022-07-28T10:14:03.137Z,21.76
2022-07-28T10:16:46.858Z,22.00
2022-07-28T10:19:13.443Z,21.33
2022-07-28T10:21:46.848Z,20.43
2022-07-28T10:24:24.035Z,20.97
2022-07-28T10:26:52.612Z,21.21
2022-07-28T10:29:22.503Z,20.40
2022-07-28T10:31:52.471Z,20.98
2022-07-28T10:34:34.747Z,20.12
2022-07-28T10:37:04.414Z,20.18
2022-07-28T10:39:44.447Z,20.40
2022-07-28T10:42:12.013Z,20.83
2022-07-28T10:44:39.658Z,20.32
2022-07-28T10:47:18.372Z,20.49
2022-07-28T10:49:48.923Z,20.60
2022-07-28T10:52:37.669Z,21.13
2022-07-28T10:55:32.237Z,21.19
2022-07-28T10:58:24.910Z,20.39
2022-07-28T11:00:57.258Z,20.47
2022-07-28T11:03:40.562Z,20.39
2022-07-28T11:06:46.038Z,21.50
2022-07-28T11:09:15.298Z,22.07
2022-07-28T11:11:50.237Z,21.26
2022-07-28T11:14:39.364Z,21.37
2022-07-28T11:17:10.176Z,21.70
2022-07-28T11:22:34.920Z,20.94
2022-07-28T11:25:18.445Z,21.31
2022-07-28T11:27:49.884Z,21.29
2022-07-28T11:30:16.481Z,21.13
2022-07-28T11:32:53.384Z,21.03
2022-07-28T11:35:27.748Z,21.59
2022-07-28T11:38:03.618Z,21.65
2022-07-28T11:40:41.626Z,21.63
2022-07-28T11:43:37.104Z,21.70
2022-07-28T11:46:25.128Z,20.94
2022-07-28T11:49:16.695Z,21.50
2022-07-28T11:52:06.481Z,21.33
2022-07-28T11:54:34.689Z,21.30
2022-07-28T11:57:02.562Z,21.42
2022-07-28T11:59:36.640Z,21.75
2022-07-28T12:02:03.980Z,21.13
2022-07-28T12:04:31.741Z,21.33
2022-07-28T12:06:58.864Z,21.65
2022-07-28T12:09:41.762Z,21.35
2022-07-28T12:12:09.065Z,21.06
2022-07-28T12:14:40.144Z,21.73
2022-07-28T12:17:07.363Z,21.02
2022-07-28T12:19:34.023Z,21.12
2022-07-28T12:22:02.457Z,21.54
2022-07-28T12:24:32.327Z,21.41
2022-07-28T12:27:14.994Z,21.40
2022-07-28T12:29:43.023Z,21.92
2022-07-28T12:32:10.237Z,21.80
2022-07-28T12:34:39.745Z,21.51
2022-07-28T12:37:09.918Z,21.40
2022-07-28T12:39:39.767Z,21.86
2022-07-28T12:42:08.335Z,21.88
2022-07-28T12:44:43.343Z,22.36
2022-07-28T12:47:14.926Z,22.28
2022-07-28T12:49:43.497Z,22.26
2022-07-28T12:52:21.594Z,22.36
2022-07-28T12:54:53.577Z,21.98
2022-07-28T12:57:48.051Z,22.34
2022-07-28T13:00:19.343Z,22.39
2022-07-28T13:02:47.112Z,21.54
2022-07-28T13:06:04.326Z,21.98
2022-07-28T13:08:45.195Z,21.30
2022-07-28T13:11:42.058Z,21.63
2022-07-28T13:14:00.733Z,21.98
2022-07-28T13:16:28.620Z,22.45
2022-07-28T13:18:57.984Z,22.40
2022-07-28T13:21:36.497Z,22.59
2022-07-28T13:24:03.517Z,23.00
2022-07-28T13:26:32.073Z,21.84
2022-07-28T13:29:02.899Z,21.77
2022-07-28T13:31:39.849Z,22.02
2022-07-28T13:34:08.173Z,21.67
2022-07-28T13:36:36.116Z,22.32
2022-07-28T13:39:03.688Z,22.16
2022-07-28T13:41:56.642Z,21.65
2022-07-28T13:44:16.917Z,22.04
2022-07-28T13:46:47.315Z,22.30
2022-07-28T13:49:16.607Z,22.28
2022-07-28T13:51:43.303Z,22.00
2022-07-28T13:54:09.979Z,21.76
2022-07-28T13:56:37.096Z,21.82
2022-07-28T13:59:03.769Z,22.31
2022-07-28T14:01:35.053Z,21.62
2022-07-28T14:04:02.083Z,22.10
2022-07-28T14:06:29.057Z,22.33
2022-07-28T14:08:55.850Z,22.58
2022-07-28T14:11:23.201Z,21.90
2022-07-28T14:13:52.211Z,22.59
2022-07-28T14:16:24.033Z,22.18
2022-07-28T14:18:51.133Z,22.72
2022-07-28T14:21:17.999Z,23.72
2022-07-28T14:23:44.605Z,23.42
2022-07-28T14:26:34.431Z,23.52
2022-07-28T14:28:57.805Z,23.09
2022-07-28T14:31:24.470Z,24.29
2022-07-28T14:33:54.770Z,23.49
2022-07-28T14:36:21.882Z,23.57
2022-07-28T14:38:55.721Z,23.96
2022-07-28T14:41:22.654Z,23.68
2022-07-28T14:43:49.197Z,23.00
2022-07-28T14:46:21.142Z,23.13
2022-07-28T14:48:48.850Z,22.87
2022-07-28T14:51:15.612Z,22.58
2022-07-28T14:53:49.904Z,22.37
2022-07-28T14:56:18.512Z,23.20
2022-07-28T14:58:45.074Z,22.79
2022-07-28T15:01:11.778Z,22.92
2022-07-28T15:03:38.455Z,22.81
2022-07-28T15:06:10.879Z,22.81
2022-07-28T15:08:37.548Z,23.07
2022-07-28T15:11:04.268Z,22.89
2022-07-28T15:13:30.846Z,22.81
2022-07-28T15:15:59.903Z,22.76
2022-07-28T15:18:26.938Z,22.95
2022-07-28T15:20:56.065Z,22.74
2022-07-28T15:23:23.126Z,23.07
2022-07-28T15:25:50.289Z,22.64
2022-07-28T15:28:19.300Z,22.67
2022-07-28T15:30:51.911Z,23.07
2022-07-28T15:33:20.644Z,23.13
2022-07-28T15:35:56.600Z,23.04
2022-07-28T15:38:26.094Z,23.26
2022-07-28T15:40:52.971Z,23.17
2022-07-28T15:43:19.851Z,22.97
2022-07-28T15:45:50.859Z,22.32
2022-07-28T15:48:17.520Z,22.40
2022-07-28T15:50:48.405Z,22.79
2022-07-28T15:53:16.185Z,22.48
2022-07-28T15:55:45.257Z,22.24
2022-07-28T15:58:15.637Z,22.07
2022-07-28T16:00:44.517Z,22.31
2022-07-28T16:03:11.542Z,21.93
2022-07-28T16:05:38.617Z,22.02
2022-07-28T16:08:05.503Z,22.09
2022-07-28T16:10:32.180Z,22.52
2022-07-28T16:12:58.753Z,22.82
2022-07-28T16:15:26.987Z,22.85
2022-07-28T16:17:54.481Z,22.80
2022-07-28T16:20:21.206Z,22.54
2022-07-28T16:22:48.050Z,22.60
2022-07-28T16:25:16.702Z,22.70
2022-07-28T16:27:44.601Z,22.31
2022-07-28T16:30:12.443Z,22.66
2022-07-28T16:32:39.798Z,22.89
2022-07-28T16:35:07.301Z,23.17
2022-07-28T16:37:35.592Z,22.93
2022-07-28T16:40:03.604Z,22.92
2022-07-28T16:42:30.337Z,22.40
2022-07-28T16:44:57.250Z,21.83
2022-07-28T16:47:23.884Z,22.52
2022-07-28T16:49:50.461Z,22.38
2022-07-28T16:52:17.083Z,21.99
2022-07-28T16:54:43.746Z,21.78
2022-07-28T16:57:10.335Z,21.59
2022-07-28T16:59:47.769Z,21.85
2022-07-28T17:02:15.719Z,21.61
2022-07-28T17:04:42.418Z,21.91
2022-07-28T17:07:09.094Z,21.78
2022-07-28T17:09:35.667Z,21.73
2022-07-28T17:12:02.325Z,21.62
2022-07-28T17:14:28.914Z,21.79
2022-07-28T17:16:55.534Z,21.90
2022-07-28T17:19:22.240Z,21.90
2022-07-28T17:21:49.094Z,22.01
2022-07-28T17:24:16.133Z,21.96
2022-07-28T17:27:35.139Z,21.83
2022-07-28T17:29:29.930Z,21.80
2022-07-28T17:31:56.532Z,21.74
2022-07-28T17:34:24.033Z,21.76
2022-07-28T17:36:50.887Z,21.80
2022-07-28T17:39:17.557Z,21.74
2022-07-28T17:41:44.102Z,22.02
2022-07-28T17:44:12.016Z,22.08
2022-07-28T17:46:38.772Z,22.09
2022-07-28T17:49:05.843Z,21.61
2022-07-28T17:51:32.607Z,21.74
2022-07-28T17:53:59.367Z,21.85
2022-07-28T17:56:26.541Z,21.90
2022-07-28T17:58:53.176Z,21.75
2022-07-28T18:01:19.921Z,21.83
2022-07-28T18:03:58.595Z,21.74
2022-07-28T18:06:29.446Z,21.50
2022-07-28T18:08:56.406Z,21.51
2022-07-28T18:11:22.994Z,21.35
2022-07-28T18:14:03.944Z,21.65
2022-07-28T18:16:32.465Z,21.40
2022-07-28T18:18:59.024Z,21.40
2022-07-28T18:21:26.701Z,21.29
2022-07-28T18:23:54.680Z,21.27
2022-07-28T18:26:21.975Z,21.29
2022-07-28T18:28:49.085Z,21.14
2022-07-28T18:31:15.757Z,21.01
2022-07-28T18:33:42.409Z,21.15
2022-07-28T18:36:09.134Z,20.92
2022-07-28T18:38:35.730Z,20.87
2022-07-28T18:41:02.285Z,20.58
2022-07-28T18:43:28.868Z,20.49
2022-07-28T18:45:55.528Z,20.44
2022-07-28T18:48:25.348Z,20.34
2022-07-28T18:50:52.183Z,20.18
2022-07-28T18:53:18.853Z,20.20
2022-07-28T18:55:45.485Z,20.26
2022-07-28T18:58:12.108Z,20.06
2022-07-28T19:00:38.770Z,20.10
2022-07-28T19:03:05.429Z,20.20
2022-07-28T19:05:37.053Z,20.08
2022-07-28T19:08:05.079Z,19.88
2022-07-28T19:10:32.431Z,19.88
2022-07-28T19:12:59.552Z,19.88
2022-07-28T19:15:26.411Z,19.83
2022-07-28T19:18:10.980Z,19.89
2022-07-28T19:20:41.599Z,19.74
2022-07-28T19:23:08.109Z,19.59
2022-07-28T19:25:36.296Z,19.59
2022-07-28T19:28:03.866Z,19.54
2022-07-28T19:30:32.310Z,19.58
2022-07-28T19:32:59.253Z,19.39
2022-07-28T19:35:25.987Z,19.30
2022-07-28T19:37:52.654Z,19.27
2022-07-28T19:40:19.314Z,19.31
2022-07-28T19:42:48.315Z,19.29
2022-07-28T19:45:15.339Z,19.23
2022-07-28T19:47:42.715Z,19.19
2022-07-28T19:50:09.417Z,19.22
2022-07-28T19:52:37.398Z,19.14
2022-07-28T19:55:05.555Z,19.10
2022-07-28T19:57:32.888Z,18.98
2022-07-28T19:59:59.837Z,18.96
2022-07-28T20:02:26.480Z,18.92
2022-07-28T20:04:53.158Z,18.81
2022-07-28T20:07:19.891Z,18.77
2022-07-28T20:09:46.549Z,18.87
2022-07-28T20:12:13.222Z,18.76
2022-07-28T20:14:39.790Z,18.81
2022-07-28T20:17:06.514Z,18.77
2022-07-28T20:19:33.191Z,18.70
2022-07-28T20:21:59.713Z,18.75
2022-07-28T20:24:27.077Z,18.69
2022-07-28T20:26:53.708Z,18.52
2022-07-28T20:29:21.428Z,18.42
2022-07-28T20:31:49.692Z,18.44
2022-07-28T20:34:16.531Z,18.22
2022-07-28T20:36:43.392Z,18.30
2022-07-28T20:39:27.881Z,18.32
2022-07-28T20:41:56.426Z,18.32
2022-07-28T20:44:30.659Z,18.28
2022-07-28T20:47:02.436Z,18.14
2022-07-28T20:49:29.486Z,18.11
2022-07-28T20:51:57.918Z,18.11
2022-07-28T20:54:25.584Z,18.22
2022-07-28T20:56:52.233Z,18.03
2022-07-28T20:59:18.826Z,18.08
2022-07-28T21:01:45.521Z,17.91
2022-07-28T21:04:12.987Z,18.02
2022-07-28T21:06:40.050Z,17.91
2022-07-28T21:09:18.145Z,17.83
2022-07-28T21:11:44.753Z,17.98
2022-07-28T21:14:11.364Z,17.84
2022-07-28T21:16:38.101Z,17.82
2022-07-28T21:19:05.740Z,17.85
2022-07-28T21:21:32.467Z,17.90
2022-07-28T21:23:59.033Z,17.84
2022-07-28T21:26:25.628Z,17.79
2022-07-28T21:29:10.696Z,17.87
2022-07-28T21:32:02.057Z,17.70
2022-07-28T21:34:26.488Z,17.78
2022-07-28T21:36:53.133Z,17.67
2022-07-28T21:39:19.873Z,17.71
2022-07-28T21:41:46.498Z,17.74
2022-07-28T21:44:13.116Z,17.65
2022-07-28T21:46:39.738Z,17.66
2022-07-28T21:49:06.458Z,17.58
2022-07-28T21:51:33.061Z,17.53
2022-07-28T21:54:00.172Z,17.48
2022-07-28T21:56:30.211Z,17.51
2022-07-28T21:58:57.078Z,17.42
2022-07-28T22:01:24.043Z,17.34
2022-07-28T22:03:50.933Z,17.32
2022-07-28T22:06:17.635Z,17.27
2022-07-28T22:08:44.260Z,17.33
2022-07-28T22:11:11.128Z,17.23
2022-07-28T22:13:37.764Z,17.27
2022-07-28T22:16:05.436Z,17.19
2022-07-28T22:18:32.030Z,17.26
2022-07-28T22:20:58.859Z,17.14
2022-07-28T22:23:29.851Z,17.06
2022-07-28T22:25:56.765Z,17.12
2022-07-28T22:28:29.779Z,16.92
2022-07-28T22:30:58.163Z,17.02
2022-07-28T22:33:24.970Z,17.02
2022-07-28T22:35:51.614Z,16.96
2022-07-28T22:38:18.723Z,16.97
2022-07-28T22:40:45.435Z,16.94
2022-07-28T22:43:11.997Z,16.90
2022-07-28T22:45:50.958Z,16.87
2022-07-28T22:48:18.378Z,16.86
2022-07-28T22:50:45.149Z,16.83
2022-07-28T22:53:11.853Z,16.81
2022-07-28T22:58:24.153Z,16.81
2022-07-28T23:00:51.539Z,16.90
2022-07-28T23:03:18.429Z,16.77
2022-07-28T23:05:45.678Z,16.75
2022-07-28T23:08:12.989Z,16.74
2022-07-28T23:10:39.731Z,16.74
2022-07-28T23:13:07.158Z,16.77
2022-07-28T23:15:39.451Z,16.66
2022-07-28T23:18:07.587Z,16.66
2022-07-28T23:20:34.355Z,16.48
2022-07-28T23:23:00.934Z,16.47
2022-07-28T23:25:28.004Z,16.46
2022-07-28T23:27:54.649Z,16.44
2022-07-28T23:30:21.372Z,16.40
2022-07-28T23:32:50.136Z,16.39
2022-07-28T23:35:16.901Z,16.42
2022-07-28T23:37:43.531Z,16.41
2022-07-28T23:40:11.029Z,16.42
2022-07-28T23:42:37.653Z,16.45
2022-07-28T23:45:05.194Z,16.31
2022-07-28T23:47:34.345Z,16.33
2022-07-28T23:50:01.788Z,16.32
2022-07-28T23:52:28.435Z,16.32
2022-07-28T23:54:55.080Z,16.26
2022-07-28T23:57:21.708Z,16.24
2022-07-28T23:59:48.366Z,16.27
